• Join FlightAware (Why Join?)
  • Login
  • US Flag 
03:36PM EST


 

Airport Tracker/Info


-or-


 

Live Flight TrackerFlight Track Log ✈ 9M-MNB ✈ 11-Apr-2013 ✈ WMKK / KUL - LFPG / CDG

Flight Track Log - Related Links

Times and Time Zones

All times are in EDT time to prevent confusion due to time zone crossing. See the 9M-MNB flight status page for this flight to view local times or setup timezone preferences in your user account.

Time Position Orientation Groundspeed Altitude Reporting Facility
EDT Latitude Longitude Course Direction KTS MPH feet Rate Location/Type
12:53PM 2.9170 101.5940 320° Northwest 266 306 4,500  Level FlightAware
12:53PM 2.9350 101.5780 318° Northwest 269 310 5,200 1,920 Climbing FlightAware
12:53PM 2.9600 101.5570 320° Northwest 270 311 6,100 1,860 Climbing FlightAware
12:54PM 2.9900 101.5320 320° Northwest 270 311 7,100 1,800 Climbing FlightAware
12:54PM 3.0140 101.5130 322° Northwest 285 328 7,800 1,800 Climbing FlightAware
12:55PM 3.0460 101.4910 326° Northwest 287 330 8,800 2,040 Climbing FlightAware
12:55PM 3.0760 101.4700 325° Northwest 293 337 9,700 1,680 Climbing FlightAware
12:56PM 3.1330 101.4310 326° Northwest 318 366 10,800 960 Climbing FlightAware
12:57PM 3.1990 101.3870 326° Northwest 358 412 11,300 600 Climbing FlightAware
12:58PM 3.2640 101.3300 319° Northwest 394 453 11,800 1,020 Climbing FlightAware
12:58PM 3.3250 101.2720 316° Northwest 401 461 13,000 1,440 Climbing FlightAware
12:59PM 3.3790 101.2210 317° Northwest 410 472 13,900 1,440 Climbing FlightAware
01:00PM 3.4550 101.1490 317° Northwest 419 482 15,300 1,260 Climbing FlightAware
01:01PM 3.5420 101.0660 316° Northwest 434 499 16,500 1,200 Climbing FlightAware
01:02PM 3.6890 100.9760 329° Northwest 447 514 18,200 1,080 Climbing FlightAware
01:03PM 3.7720 100.9380 335° Northwest 454 522 18,900 960 Climbing FlightAware
01:04PM 3.8660 100.8960 336° Northwest 460 529 19,800 780 Climbing FlightAware
01:05PM 3.9640 100.8510 335° Northwest 465 535 20,200 720 Climbing FlightAware
01:06PM 4.0450 100.8160 337° Northwest 478 550 20,900 1,020 Climbing FlightAware
01:06PM 4.1440 100.7710 336° Northwest 487 560 21,700 840 Climbing FlightAware
01:07PM 4.2370 100.7290 336° Northwest 493 567 22,300 840 Climbing FlightAware
01:08PM 4.3250 100.6900 336° Northwest 494 568 22,900 1,080 Climbing FlightAware
01:08PM 4.4060 100.6540 336° Northwest 491 565 23,800 1,020 Climbing FlightAware
01:09PM 4.5020 100.6100 335° Northwest 495 570 24,400 720 Climbing FlightAware
01:10PM 4.5850 100.5730 336° Northwest 498 573 24,900 720 Climbing FlightAware
01:11PM 4.6760 100.5320 336° Northwest 500 575 25,500 660 Climbing FlightAware
01:11PM 4.7680 100.4910 336° Northwest 506 582 25,900 660 Climbing FlightAware
01:12PM 4.8530 100.4530 336° Northwest 508 585 26,400 900 Climbing FlightAware
01:13PM 4.9490 100.4090 335° Northwest 502 578 27,200 720 Climbing FlightAware
01:13PM 5.0340 100.3710 336° Northwest 509 586 27,500 420 Climbing FlightAware
01:14PM 5.1220 100.3310 336° Northwest 514 592 27,800 300 Climbing FlightAware
01:15PM 5.2140 100.2800 331° Northwest 516 594 28,000 120 Climbing FlightAware
01:15PM 5.2920 100.2210 323° Northwest 517 595 28,000  Level FlightAware
01:16PM 5.3650 100.1470 315° West 520 598 28,000  Level FlightAware
01:17PM 5.4270 100.0680 308° West 521 600 28,000  Level FlightAware
01:18PM 5.4860 99.9910 308° West 522 601 28,000  Level FlightAware
01:18PM 5.5580 99.9080 311° West 521 600 28,000  Level FlightAware
01:19PM 5.6320 99.8500 322° Northwest 521 600 28,000 240 Level FlightAware
01:20PM 5.7220 99.7830 323° Northwest 524 603 28,400 420 Climbing FlightAware
01:20PM 5.8010 99.7250 324° Northwest 529 609 28,600 420 Climbing FlightAware
01:21PM 5.8800 99.6660 323° Northwest 530 610 29,000 660 Climbing FlightAware
01:22PM 5.9690 99.6020 324° Northwest 526 605 29,600 720 Climbing FlightAware
01:22PM 6.0380 99.5510 324° Northwest 527 606 30,000 600 Climbing FlightAware
01:23PM 6.1200 99.4910 324° Northwest 529 609 30,400 300 Climbing FlightAware
01:24PM 6.1980 99.4320 323° Northwest 528 608 30,500 60 Climbing FlightAware
01:24PM 6.2650 99.3820 323° Northwest 528 608 30,500 900 Level FlightAware
01:25PM 6.3590 99.3190 326° Northwest 529 609 31,700 840 Climbing FlightAware
01:26PM 6.4430 99.2640 327° Northwest 529 609 31,700  Level FlightAware
01:27PM 6.5300 99.2070 327° Northwest 529 609 31,700  Level FlightAware
01:27PM 6.6000 99.1620 327° Northwest 529 609 31,700  Level FlightAware
01:28PM 6.6700 99.1160 327° Northwest 529 609 31,700  Level FlightAware
01:29PM 6.7400 99.0700 327° Northwest 529 609 31,700  Level FlightAware
01:29PM 6.8100 99.0250 327° Northwest 529 609 31,700  Level FlightAware
01:30PM 6.8970 98.9680 327° Northwest 529 609 31,700  Level FlightAware
01:31PM 6.9670 98.9220 327° Northwest 529 609 31,700  Level FlightAware
01:32PM 7.0360 98.8760 327° Northwest 529 609 31,700  Level FlightAware
01:32PM 7.1060 98.8310 327° Northwest 529 609 31,700 1,560 Level FlightAware
01:34PM 7.5160 98.6700 339° North 522 601 36,000 840 Climbing FlightAware
01:37PM 7.7244 98.4889 319° Northwest  Level Estimated
01:37PM 7.8170 98.3590 319° Northwest 521 600 36,000  Level FlightAware
01:40PM 8.0253 98.1776 319° Northwest  Level Estimated
01:41PM 8.1200 98.0951 319° Northwest  Level Estimated
01:42PM 8.2146 98.0126 319° Northwest  Level Estimated
01:43PM 8.3092 97.9300 319° Northwest  Level Estimated
01:44PM 8.4038 97.8473 319° Northwest  Level Estimated
01:44PM 8.3110 97.4560 319° Northwest 530 610 36,000  Level FlightAware
01:46PM 8.4170 97.2300 295° West 529 609 36,000  Level FlightAware
01:47PM 8.4520 97.1540 295° West 529 609 36,000  Level FlightAware
01:47PM 8.4870 97.0770 295° West 529 609 36,000  Level FlightAware
01:48PM 8.5230 97.0010 296° West 529 609 36,000  Level FlightAware
01:49PM 8.5580 96.9250 295° West 529 609 36,000  Level FlightAware
01:50PM 8.6020 96.8300 295° West 529 609 36,000  Level FlightAware
01:50PM 8.6370 96.7530 295° West 529 609 36,000  Level FlightAware
01:51PM 8.6720 96.6770 295° West 529 609 36,000  Level FlightAware
01:52PM 8.7070 96.6010 295° West 529 609 36,000  Level FlightAware
01:52PM 8.7510 96.5050 295° West 529 609 36,000  Level FlightAware
01:53PM 8.7860 96.4290 295° West 529 609 36,000  Level FlightAware
01:54PM 8.8210 96.3530 295° West 529 609 36,000  Level FlightAware
01:54PM 8.8570 96.2760 295° West 529 609 36,000  Level FlightAware
01:55PM 8.8920 96.2000 295° West 529 609 36,000  Level FlightAware
01:58PM 9.1230 95.9963 319° Northwest  Level Estimated
01:59PM 9.2173 95.9131 319° Northwest  Level Estimated
02:00PM 9.3116 95.8299 319° Northwest  Level Estimated
02:01PM 9.4058 95.7466 319° Northwest  Level Estimated
02:02PM 9.5000 95.6633 319° Northwest  Level Estimated
02:03PM 9.5942 95.5799 319° Northwest  Level Estimated
02:04PM 9.6884 95.4964 319° Northwest  Level Estimated
02:05PM 9.7825 95.4129 319° Northwest  Level Estimated
02:06PM 9.8766 95.3294 319° Northwest  Level Estimated
02:07PM 9.9707 95.2458 319° Northwest  Level Estimated
02:08PM 10.0648 95.1622 319° Northwest  Level Estimated
02:09PM 10.1589 95.0786 319° Northwest  Level Estimated
02:10PM 10.2530 94.9948 319° Northwest  Level Estimated
02:11PM 10.3470 94.9111 319° Northwest  Level Estimated
02:12PM 10.4410 94.8272 319° Northwest  Level Estimated
02:13PM 10.5350 94.7434 319° Northwest  Level Estimated
02:14PM 10.6289 94.6595 319° Northwest  Level Estimated
02:15PM 10.7229 94.5755 319° Northwest  Level Estimated
02:16PM 10.8168 94.4915 319° Northwest  Level Estimated
02:17PM 10.9107 94.4074 319° Northwest  Level Estimated
02:18PM 11.0046 94.3232 319° Northwest  Level Estimated
02:19PM 11.0984 94.2391 319° Northwest  Level Estimated
02:20PM 11.1922 94.1548 319° Northwest  Level Estimated
02:21PM 11.2860 94.0705 319° Northwest  Level Estimated
02:22PM 11.3798 93.9862 319° Northwest  Level Estimated
02:23PM 11.4736 93.9018 319° Northwest  Level Estimated
02:24PM 11.5673 93.8173 319° Northwest  Level Estimated
02:25PM 11.6610 93.7328 319° Northwest  Level Estimated
02:26PM 11.7547 93.6482 319° Northwest  Level Estimated
02:27PM 11.8483 93.5636 319° Northwest  Level Estimated
02:28PM 11.9420 93.4789 318° Northwest  Level Estimated
02:29PM 12.0356 93.3942 318° Northwest  Level Estimated
02:30PM 12.1292 93.3094 318° Northwest  Level Estimated
02:31PM 12.2227 93.2245 318° Northwest  Level Estimated
02:32PM 12.3162 93.1396 318° Northwest  Level Estimated
02:33PM 12.4097 93.0546 318° Northwest  Level Estimated
02:34PM 12.5032 92.9695 318° Northwest  Level Estimated
02:35PM 12.5967 92.8844 318° Northwest  Level Estimated
02:36PM 12.6901 92.7992 318° Northwest  Level Estimated
02:37PM 12.7835 92.7140 318° Northwest  Level Estimated
02:38PM 12.8768 92.6287 318° Northwest  Level Estimated
02:39PM 12.9702 92.5434 318° Northwest  Level Estimated
02:40PM 13.0635 92.4579 318° Northwest  Level Estimated
02:41PM 13.1568 92.3724 318° Northwest  Level Estimated
02:42PM 13.2500 92.2869 318° Northwest  Level Estimated
02:43PM 13.3432 92.2013 318° Northwest  Level Estimated
02:44PM 13.4364 92.1156 318° Northwest  Level Estimated
02:45PM 13.5296 92.0298 318° Northwest  Level Estimated
02:46PM 13.6228 91.9440 318° Northwest  Level Estimated
02:47PM 13.7159 91.8581 318° Northwest  Level Estimated
02:48PM 13.8089 91.7721 318° Northwest  Level Estimated
02:49PM 13.9020 91.6861 318° Northwest  Level Estimated
02:50PM 13.9950 91.6000 318° Northwest  Level Estimated
02:51PM 14.0880 91.5139 318° Northwest  Level Estimated
02:52PM 14.1810 91.4277 318° Northwest  Level Estimated
02:53PM 14.2739 91.3413 318° Northwest  Level Estimated
02:54PM 14.3668 91.2550 318° Northwest  Level Estimated
02:55PM 14.4597 91.1685 318° Northwest  Level Estimated
02:56PM 14.5525 91.0820 318° Northwest  Level Estimated
02:57PM 14.6453 90.9954 318° Northwest  Level Estimated
02:58PM 14.7381 90.9087 318° Northwest  Level Estimated
02:59PM 14.8308 90.8220 318° Northwest  Level Estimated
03:00PM 14.9235 90.7352 318° Northwest  Level Estimated
03:01PM 15.0162 90.6483 318° Northwest  Level Estimated
03:02PM 15.1088 90.5613 318° Northwest  Level Estimated
03:03PM 15.2014 90.4743 318° Northwest  Level Estimated
03:04PM 15.2940 90.3872 318° Northwest  Level Estimated
03:05PM 15.3865 90.3000 318° Northwest  Level Estimated
03:06PM 15.4790 90.2127 318° Northwest  Level Estimated
03:07PM 15.5715 90.1254 318° Northwest  Level Estimated
03:08PM 15.6640 90.0379 318° Northwest  Level Estimated
03:09PM 15.7564 89.9504 318° Northwest  Level Estimated
03:10PM 15.8487 89.8628 318° Northwest  Level Estimated
03:11PM 15.9411 89.7752 318° Northwest  Level Estimated
03:12PM 16.0334 89.6874 318° Northwest  Level Estimated
03:13PM 16.1256 89.5996 318° Northwest  Level Estimated
03:14PM 16.2178 89.5117 318° Northwest  Level Estimated
03:15PM 16.3100 89.4237 318° Northwest  Level Estimated
03:16PM 16.4022 89.3356 317° Northwest  Level Estimated
03:17PM 16.4943 89.2475 317° Northwest  Level Estimated
03:18PM 16.5864 89.1592 317° Northwest  Level Estimated
03:19PM 16.6784 89.0709 317° Northwest  Level Estimated
03:20PM 16.7704 88.9825 317° Northwest  Level Estimated
03:21PM 16.8624 88.8940 317° Northwest  Level Estimated
03:22PM 16.9543 88.8054 317° Northwest  Level Estimated
03:23PM 17.0462 88.7167 317° Northwest  Level Estimated
03:24PM 17.1381 88.6280 317° Northwest  Level Estimated
03:25PM 17.2299 88.5391 317° Northwest  Level Estimated
03:26PM 17.3216 88.4502 317° Northwest  Level Estimated
03:27PM 17.4134 88.3612 317° Northwest  Level Estimated
03:28PM 17.5051 88.2720 317° Northwest  Level Estimated
03:29PM 17.5967 88.1829 317° Northwest  Level Estimated
03:30PM 17.6883 88.0936 317° Northwest  Level Estimated
03:31PM 17.7799 88.0042 317° Northwest  Level Estimated
03:32PM 17.8714 87.9147 317° Northwest  Level Estimated
03:33PM 17.9629 87.8251 317° Northwest  Level Estimated
03:34PM 18.0544 87.7355 317° Northwest  Level Estimated
03:35PM 18.1458 87.6457 317° Northwest  Level Estimated
03:36PM 18.2371 87.5559 317° Northwest  Level Estimated
03:37PM 18.3285 87.4659 317° Northwest  Level Estimated
03:38PM 18.4198 87.3759 317° Northwest  Level Estimated
03:39PM 18.5110 87.2858 317° Northwest  Level Estimated
03:40PM 18.6022 87.1955 317° Northwest  Level Estimated
03:41PM 18.6933 87.1052 317° Northwest  Level Estimated
03:42PM 18.7845 87.0148 317° Northwest  Level Estimated
03:43PM 18.8755 86.9243 317° Northwest  Level Estimated
03:44PM 18.9666 86.8336 317° Northwest  Level Estimated
03:45PM 19.0575 86.7429 317° Northwest  Level Estimated
03:46PM 19.1485 86.6521 317° Northwest  Level Estimated
03:47PM 19.2394 86.5612 317° Northwest  Level Estimated
03:48PM 19.3302 86.4702 317° Northwest  Level Estimated
03:49PM 19.4210 86.3790 317° Northwest  Level Estimated
03:50PM 19.5118 86.2878 317° Northwest  Level Estimated
03:51PM 19.6025 86.1965 317° Northwest  Level Estimated
03:52PM 19.6932 86.1051 316° Northwest  Level Estimated
03:53PM 19.7838 86.0135 316° Northwest  Level Estimated
03:54PM 19.8743 85.9219 316° Northwest  Level Estimated
03:55PM 19.9649 85.8302 316° Northwest  Level Estimated
03:56PM 20.0554 85.7383 316° Northwest  Level Estimated
03:57PM 20.1458 85.6464 316° Northwest  Level Estimated
03:58PM 20.2362 85.5543 316° Northwest  Level Estimated
03:59PM 20.3265 85.4621 316° Northwest  Level Estimated
04:00PM 20.4168 85.3699 316° Northwest  Level Estimated
04:01PM 20.5070 85.2775 316° Northwest  Level Estimated
04:02PM 20.5972 85.1850 316° Northwest  Level Estimated
04:03PM 20.6874 85.0924 316° Northwest  Level Estimated
04:04PM 20.7775 84.9997 316° Northwest  Level Estimated
04:05PM 20.8675 84.9069 316° Northwest  Level Estimated
04:06PM 20.9575 84.8139 316° Northwest  Level Estimated
04:07PM 21.0474 84.7209 316° Northwest  Level Estimated
04:08PM 21.1373 84.6277 316° Northwest  Level Estimated
04:09PM 21.2271 84.5345 316° Northwest  Level Estimated
04:10PM 21.3169 84.4411 316° Northwest  Level Estimated
04:11PM 21.4067 84.3476 316° Northwest  Level Estimated
04:12PM 21.4964 84.2540 316° Northwest  Level Estimated
04:13PM 21.5860 84.1602 316° Northwest  Level Estimated
04:14PM 21.6756 84.0664 316° Northwest  Level Estimated
04:15PM 21.7651 83.9724 316° Northwest  Level Estimated
04:16PM 21.8546 83.8784 316° Northwest  Level Estimated
04:17PM 21.9440 83.7842 316° Northwest  Level Estimated
04:18PM 22.0334 83.6898 316° Northwest  Level Estimated
04:19PM 22.1227 83.5954 316° Northwest  Level Estimated
04:20PM 22.2119 83.5009 316° Northwest  Level Estimated
04:21PM 22.3011 83.4062 316° Northwest  Level Estimated
04:22PM 22.3903 83.3114 315° West  Level Estimated
04:23PM 22.4794 83.2165 315° West  Level Estimated
04:24PM 22.5684 83.1215 315° West  Level Estimated
04:25PM 22.6574 83.0263 315° West  Level Estimated
04:26PM 22.7463 82.9310 315° West  Level Estimated
04:27PM 22.8352 82.8356 315° West  Level Estimated
04:28PM 22.9240 82.7401 315° West  Level Estimated
04:29PM 23.0127 82.6444 315° West  Level Estimated
04:30PM 23.1014 82.5486 315° West  Level Estimated
04:31PM 23.1901 82.4527 315° West  Level Estimated
04:32PM 23.2787 82.3567 315° West  Level Estimated
04:33PM 23.3672 82.2605 315° West  Level Estimated
04:34PM 23.4556 82.1642 315° West  Level Estimated
04:35PM 23.5440 82.0678 315° West  Level Estimated
04:36PM 23.6324 81.9713 315° West  Level Estimated
04:37PM 23.7207 81.8746 315° West  Level Estimated
04:38PM 23.8089 81.7778 315° West  Level Estimated
04:39PM 23.8970 81.6808 315° West  Level Estimated
04:40PM 23.9851 81.5837 315° West  Level Estimated
04:41PM 24.0732 81.4865 315° West  Level Estimated
04:42PM 24.1612 81.3892 315° West  Level Estimated
04:43PM 24.2491 81.2917 315° West  Level Estimated
04:44PM 24.3369 81.1941 315° West  Level Estimated
04:45PM 24.4247 81.0963 315° West  Level Estimated
04:46PM 24.5125 80.9985 315° West  Level Estimated
04:47PM 24.6001 80.9004 315° West  Level Estimated
04:48PM 24.6877 80.8023 314° West  Level Estimated
04:49PM 24.7753 80.7040 314° West  Level Estimated
04:50PM 24.8627 80.6055 314° West  Level Estimated
04:51PM 24.9502 80.5070 314° West  Level Estimated
04:52PM 25.0375 80.4083 314° West  Level Estimated
04:53PM 25.1248 80.3094 314° West  Level Estimated
04:54PM 25.2120 80.2104 314° West  Level Estimated
04:55PM 25.2992 80.1113 314° West  Level Estimated
04:56PM 25.3862 80.0120 314° West  Level Estimated
04:57PM 25.4732 79.9126 314° West  Level Estimated
04:58PM 25.5602 79.8130 314° West  Level Estimated
04:59PM 25.6471 79.7133 314° West  Level Estimated
05:00PM 25.7339 79.6134 314° West  Level Estimated
05:01PM 25.8206 79.5134 314° West  Level Estimated
05:02PM 25.9073 79.4133 314° West  Level Estimated
05:03PM 25.9939 79.3130 314° West  Level Estimated
05:04PM 26.0805 79.2125 314° West  Level Estimated
05:05PM 26.1669 79.1119 314° West  Level Estimated
05:06PM 26.2533 79.0112 314° West  Level Estimated
05:07PM 26.3397 78.9103 314° West  Level Estimated
05:08PM 26.4259 78.8093 314° West  Level Estimated
05:09PM 26.5121 78.7081 314° West  Level Estimated
05:10PM 26.5982 78.6067 314° West  Level Estimated
05:11PM 26.6843 78.5052 314° West  Level Estimated
05:12PM 26.7703 78.4036 313° West  Level Estimated
05:13PM 26.8561 78.3018 313° West  Level Estimated
05:14PM 26.9420 78.1998 313° West  Level Estimated
05:15PM 27.0277 78.0977 313° West  Level Estimated
05:16PM 27.1134 77.9954 313° West  Level Estimated
05:17PM 27.1990 77.8930 313° West  Level Estimated
05:18PM 27.2845 77.7904 313° West  Level Estimated
05:19PM 27.3700 77.6877 313° West  Level Estimated
05:20PM 27.4554 77.5848 313° West  Level Estimated
05:21PM 27.5407 77.4817 313° West  Level Estimated
05:22PM 27.6259 77.3785 313° West  Level Estimated
05:23PM 27.7111 77.2751 313° West  Level Estimated
05:24PM 27.7961 77.1715 313° West  Level Estimated
05:25PM 27.8811 77.0678 313° West  Level Estimated
05:26PM 27.9660 76.9640 313° West  Level Estimated
05:27PM 28.0509 76.8599 313° West  Level Estimated
05:28PM 28.1356 76.7557 313° West  Level Estimated
05:29PM 28.2203 76.6514 313° West  Level Estimated
05:30PM 28.3049 76.5469 313° West  Level Estimated
05:31PM 28.3894 76.4422 313° West  Level Estimated
05:32PM 28.4739 76.3373 313° West  Level Estimated
05:33PM 28.5582 76.2323 312° West  Level Estimated
05:34PM 28.6425 76.1271 312° West  Level Estimated
05:35PM 28.7267 76.0217 312° West  Level Estimated
05:36PM 28.8108 75.9162 312° West  Level Estimated
05:37PM 28.8949 75.8104 312° West  Level Estimated
05:38PM 28.9788 75.7046 312° West  Level Estimated
05:39PM 29.0627 75.5985 312° West  Level Estimated
05:40PM 29.1465 75.4923 312° West  Level Estimated
05:41PM 29.2302 75.3859 312° West  Level Estimated
05:42PM 29.3138 75.2793 312° West  Level Estimated
05:43PM 29.3974 75.1726 312° West  Level Estimated
05:44PM 29.4808 75.0657 312° West  Level Estimated
05:45PM 29.5642 74.9586 312° West  Level Estimated
05:46PM 29.6474 74.8513 312° West  Level Estimated
05:47PM 29.7306 74.7439 312° West  Level Estimated
05:48PM 29.8137 74.6362 312° West  Level Estimated
05:49PM 29.8967 74.5284 312° West  Level Estimated
05:50PM 29.9797 74.4204 312° West  Level Estimated
05:51PM 30.0625 74.3122 312° West  Level Estimated
05:52PM 30.1453 74.2039 311° West  Level Estimated
05:53PM 30.2279 74.0954 311° West  Level Estimated
05:54PM 30.3105 73.9867 311° West  Level Estimated
05:55PM 30.3930 73.8778 311° West  Level Estimated
05:56PM 30.4754 73.7687 311° West  Level Estimated
05:57PM 30.5577 73.6594 311° West  Level Estimated
05:58PM 30.6399 73.5500 311° West  Level Estimated
05:59PM 30.7220 73.4403 311° West  Level Estimated
06:00PM 30.8040 73.3305 311° West  Level Estimated
06:01PM 30.8860 73.2205 311° West  Level Estimated
06:02PM 30.9678 73.1103 311° West  Level Estimated
06:03PM 31.0495 72.9999 311° West  Level Estimated
06:04PM 31.1312 72.8893 311° West  Level Estimated
06:05PM 31.2128 72.7785 311° West  Level Estimated
06:06PM 31.2942 72.6676 311° West  Level Estimated
06:07PM 31.3756 72.5564 311° West  Level Estimated
06:08PM 31.4569 72.4451 311° West  Level Estimated
06:09PM 31.5380 72.3336 311° West  Level Estimated
06:10PM 31.6191 72.2218 310° West  Level Estimated
06:11PM 31.7001 72.1099 310° West  Level Estimated
06:12PM 31.7810 71.9978 310° West  Level Estimated
06:13PM 31.8618 71.8855 310° West  Level Estimated
06:14PM 31.9424 71.7729 310° West  Level Estimated
06:15PM 32.0230 71.6602 310° West  Level Estimated
06:16PM 32.1035 71.5473 310° West  Level Estimated
06:17PM 32.1839 71.4342 310° West  Level Estimated
06:18PM 32.2642 71.3209 310° West  Level Estimated
06:19PM 32.3444 71.2074 310° West  Level Estimated
06:20PM 32.4245 71.0937 310° West  Level Estimated
06:21PM 32.5045 70.9798 310° West  Level Estimated
06:22PM 32.5843 70.8657 310° West  Level Estimated
06:23PM 32.6641 70.7513 310° West  Level Estimated
06:24PM 32.7438 70.6368 310° West  Level Estimated
06:25PM 32.8233 70.5221 310° West  Level Estimated
06:26PM 32.9028 70.4072 309° West  Level Estimated
06:27PM 32.9822 70.2920 309° West  Level Estimated
06:28PM 33.0614 70.1767 309° West  Level Estimated
06:29PM 33.1405 70.0611 309° West  Level Estimated
06:30PM 33.2196 69.9454 309° West  Level Estimated
06:31PM 33.2985 69.8294 309° West  Level Estimated
06:32PM 33.3773 69.7132 309° West  Level Estimated
06:33PM 33.4561 69.5968 309° West  Level Estimated
06:34PM 33.5346 69.4802 309° West  Level Estimated
06:35PM 33.6131 69.3634 309° West  Level Estimated
06:36PM 33.6915 69.2464 309° West  Level Estimated
06:37PM 33.7698 69.1291 309° West  Level Estimated
06:38PM 33.8479 69.0117 309° West  Level Estimated
06:39PM 33.9260 68.8940 309° West  Level Estimated
06:40PM 34.0039 68.7761 309° West  Level Estimated
06:41PM 34.0818 68.6580 309° West  Level Estimated
06:42PM 34.1595 68.5397 308° West  Level Estimated
06:43PM 34.2371 68.4212 308° West  Level Estimated
06:44PM 34.3146 68.3024 308° West  Level Estimated
06:45PM 34.3919 68.1834 308° West  Level Estimated
06:46PM 34.4692 68.0642 308° West  Level Estimated
06:47PM 34.5463 67.9448 308° West  Level Estimated
06:48PM 34.6233 67.8251 308° West  Level Estimated
06:49PM 34.7003 67.7053 308° West  Level Estimated
06:50PM 34.7771 67.5852 308° West  Level Estimated
06:51PM 34.8537 67.4649 308° West  Level Estimated
06:52PM 34.9303 67.3444 308° West  Level Estimated
06:53PM 35.0067 67.2236 308° West  Level Estimated
06:54PM 35.0830 67.1026 308° West  Level Estimated
06:55PM 35.1592 66.9814 308° West  Level Estimated
06:56PM 35.2353 66.8600 308° West  Level Estimated
06:57PM 35.3112 66.7383 307° West  Level Estimated
06:58PM 35.3871 66.6164 307° West  Level Estimated
06:59PM 35.4627 66.4943 307° West  Level Estimated
07:00PM 35.5383 66.3720 307° West  Level Estimated
07:01PM 35.6138 66.2494 307° West  Level Estimated
07:02PM 35.6891 66.1266 307° West  Level Estimated
07:03PM 35.7643 66.0035 307° West  Level Estimated
07:04PM 35.8394 65.8802 307° West  Level Estimated
07:05PM 35.9144 65.7567 307° West  Level Estimated
07:06PM 35.9892 65.6330 307° West  Level Estimated
07:07PM 36.0639 65.5090 307° West  Level Estimated
07:08PM 36.1385 65.3848 307° West  Level Estimated
07:09PM 36.2129 65.2603 307° West  Level Estimated
07:10PM 36.2872 65.1356 307° West  Level Estimated
07:11PM 36.3614 65.0107 306° West  Level Estimated
07:12PM 36.4355 64.8856 306° West  Level Estimated
07:13PM 36.5094 64.7601 306° West  Level Estimated
07:14PM 36.5832 64.6345 306° West  Level Estimated
07:15PM 36.6569 64.5086 306° West  Level Estimated
07:16PM 36.7304 64.3825 306° West  Level Estimated
07:17PM 36.8038 64.2561 306° West  Level Estimated
07:18PM 36.8771 64.1295 306° West  Level Estimated
07:19PM 36.9502 64.0027 306° West  Level Estimated
07:20PM 37.0232 63.8756 306° West  Level Estimated
07:21PM 37.0960 63.7482 306° West  Level Estimated
07:22PM 37.1688 63.6207 306° West  Level Estimated
07:23PM 37.2413 63.4928 306° West  Level Estimated
07:24PM 37.3138 63.3648 305° West  Level Estimated
07:25PM 37.3861 63.2364 305° West  Level Estimated
07:26PM 37.4583 63.1079 305° West  Level Estimated
07:27PM 37.5303 62.9790 305° West  Level Estimated
07:28PM 37.6022 62.8500 305° West  Level Estimated
07:29PM 37.6739 62.7207 305° West  Level Estimated
07:30PM 37.7455 62.5911 305° West  Level Estimated
07:31PM 37.8170 62.4613 305° West  Level Estimated
07:32PM 37.8883 62.3312 305° West  Level Estimated
07:33PM 37.9595 62.2009 305° West  Level Estimated
07:34PM 38.0305 62.0703 305° West  Level Estimated
07:35PM 38.1014 61.9395 305° West  Level Estimated
07:36PM 38.1722 61.8084 304° West  Level Estimated
07:37PM 38.2428 61.6771 304° West  Level Estimated
07:38PM 38.3132 61.5455 304° West  Level Estimated
07:39PM 38.3835 61.4136 304° West  Level Estimated
07:40PM 38.4537 61.2815 304° West  Level Estimated
07:41PM 38.5237 61.1492 304° West  Level Estimated
07:42PM 38.5936 61.0166 304° West  Level Estimated
07:43PM 38.6633 60.8837 304° West  Level Estimated
07:44PM 38.7328 60.7506 304° West  Level Estimated
07:45PM 38.8022 60.6172 304° West  Level Estimated
07:46PM 38.8715 60.4835 304° West  Level Estimated
07:47PM 38.9406 60.3496 304° West  Level Estimated
07:48PM 39.0095 60.2154 304° West  Level Estimated
07:49PM 39.0783 60.0810 303° West  Level Estimated
07:50PM 39.1470 59.9463 303° West  Level Estimated
07:51PM 39.2154 59.8114 303° West  Level Estimated
07:52PM 39.2838 59.6761 303° West  Level Estimated
07:53PM 39.3519 59.5406 303° West  Level Estimated
07:54PM 39.4199 59.4049 303° West  Level Estimated
07:55PM 39.4878 59.2689 303° West  Level Estimated
07:56PM 39.5555 59.1326 303° West  Level Estimated
07:57PM 39.6231 58.9960 303° West  Level Estimated
07:58PM 39.6904 58.8592 303° West  Level Estimated
07:59PM 39.7576 58.7221 303° West  Level Estimated
08:00PM 39.8247 58.5848 302° West  Level Estimated
08:01PM 39.8916 58.4472 302° West  Level Estimated
08:02PM 39.9583 58.3093 302° West  Level Estimated
08:03PM 40.0249 58.1712 302° West  Level Estimated
08:04PM 40.0913 58.0327 302° West  Level Estimated
08:05PM 40.1575 57.8940 302° West  Level Estimated
08:06PM 40.2236 57.7551 302° West  Level Estimated
08:07PM 40.2895 57.6158 302° West  Level Estimated
08:08PM 40.3553 57.4763 302° West  Level Estimated
08:09PM 40.4208 57.3366 302° West  Level Estimated
08:10PM 40.4862 57.1965 302° West  Level Estimated
08:11PM 40.5515 57.0562 301° West  Level Estimated
08:12PM 40.6165 56.9156 301° West  Level Estimated
08:13PM 40.6814 56.7747 301° West  Level Estimated
08:14PM 40.7461 56.6336 301° West  Level Estimated
08:15PM 40.8107 56.4922 301° West  Level Estimated
08:16PM 40.8750 56.3505 301° West  Level Estimated
08:17PM 40.9393 56.2085 301° West  Level Estimated
08:18PM 41.0033 56.0662 301° West  Level Estimated
08:19PM 41.0671 55.9237 301° West  Level Estimated
08:20PM 41.1308 55.7809 301° West  Level Estimated
08:21PM 41.1943 55.6379 301° West  Level Estimated
08:22PM 41.2576 55.4945 300° West  Level Estimated
08:23PM 41.3208 55.3509 300° West  Level Estimated
08:24PM 41.3837 55.2070 300° West  Level Estimated
08:25PM 41.4465 55.0628 300° West  Level Estimated
08:26PM 41.5091 54.9183 300° West  Level Estimated
08:27PM 41.5715 54.7735 300° West  Level Estimated
08:28PM 41.6338 54.6285 300° West  Level Estimated
08:29PM 41.6958 54.4832 300° West  Level Estimated
08:30PM 41.7577 54.3376 300° West  Level Estimated
08:31PM 41.8194 54.1918 300° West  Level Estimated
08:32PM 41.8809 54.0456 300° West  Level Estimated
08:33PM 41.9422 53.8992 299° West  Level Estimated
08:34PM 42.0033 53.7525 299° West  Level Estimated
08:35PM 42.0643 53.6055 299° West  Level Estimated
08:36PM 42.1250 53.4582 299° West  Level Estimated
08:37PM 42.1856 53.3107 299° West  Level Estimated
08:38PM 42.2460 53.1628 299° West  Level Estimated
08:39PM 42.3062 53.0147 299° West  Level Estimated
08:39PM 43.8630 50.9120 299° West 483 556 38,000  Level FlightAware
08:40PM 42.3662 52.8663 299° West  Level Estimated
08:40PM 43.9180 50.8250 311° West 483 556 38,000  Level FlightAware
08:41PM 44.0130 50.6760 312° West 484 557 38,000  Level FlightAware
08:42PM 44.0830 50.5650 311° West 489 563 38,000  Level FlightAware
08:43PM 44.1540 50.4520 311° West 487 560 38,000  Level FlightAware
08:43PM 44.2210 50.3450 311° West 484 557 38,000  Level FlightAware
08:44PM 44.2750 50.2590 311° West 484 557 38,000  Level FlightAware
08:45PM 44.3450 50.1450 311° West 485 558 38,000  Level FlightAware
08:45PM 44.4030 50.0510 311° West 487 560 38,000  Level FlightAware
08:46PM 44.4630 49.9550 311° West 489 563 38,000  Level FlightAware
08:47PM 44.5280 49.8480 310° West 491 565 38,000  Level FlightAware
08:48PM 44.5950 49.7380 311° West 494 568 38,000  Level FlightAware
08:48PM 44.6520 49.6450 311° West 495 570 38,000  Level FlightAware
08:49PM 44.7210 49.5320 311° West 493 567 38,000  Level FlightAware
08:50PM 44.7850 49.4120 307° West 488 562 38,000  Level FlightAware
08:51PM 44.8430 49.2830 302° West 482 555 38,000  Level FlightAware
08:51PM 44.8910 49.1630 299° West 481 554 38,000  Level FlightAware
08:52PM 44.9360 49.0520 300° West 480 552 38,000  Level FlightAware
08:53PM 44.9790 48.9450 300° West 480 552 38,000  Level FlightAware
08:53PM 45.0270 48.8240 299° West 480 552 38,000  Level FlightAware
08:54PM 45.0760 48.7010 299° West 482 555 38,000  Level FlightAware
08:55PM 45.1210 48.5880 299° West 484 557 38,000  Level FlightAware
08:56PM 45.1650 48.4770 299° West 484 557 38,000  Level FlightAware
08:56PM 45.2100 48.3610 299° West 482 555 38,000  Level FlightAware
08:57PM 45.2430 48.2780 299° West 483 556 38,000  Level FlightAware
08:58PM 45.3000 48.1310 299° West 486 559 38,000  Level FlightAware
08:58PM 45.3480 48.0090 299° West 482 555 38,000  Level FlightAware
08:59PM 45.4060 47.8580 299° West 478 550 38,000  Level FlightAware
09:00PM 45.4390 47.7710 298° West 478 550 38,000  Level FlightAware
09:01PM 45.4850 47.6510 299° West 475 547 38,000  Level FlightAware
09:01PM 45.5260 47.5410 298° West 475 547 38,000  Level FlightAware
09:02PM 45.5800 47.4030 299° West 481 554 38,000  Level FlightAware
09:03PM 45.6270 47.2790 298° West 482 555 38,000  Level FlightAware
09:03PM 45.6660 47.1740 298° West 482 555 38,000  Level FlightAware
09:04PM 45.7170 47.0370 298° West 480 552 38,000  Level FlightAware
09:05PM 45.7590 46.9270 299° West 479 551 38,000  Level FlightAware
09:06PM 45.8050 46.8030 298° West 478 550 38,000  Level FlightAware
09:06PM 45.8460 46.6900 298° West 479 551 38,000  Level FlightAware
09:07PM 45.8890 46.5750 298° West 481 554 38,000  Level FlightAware
09:08PM 45.9310 46.4610 298° West 482 555 38,000  Level FlightAware
09:08PM 45.9690 46.3560 298° West 484 557 38,000  Level FlightAware
09:09PM 46.0180 46.2220 298° West 485 558 38,000  Level FlightAware
09:10PM 46.0560 46.1170 298° West 485 558 38,000  Level FlightAware
09:10PM 46.1050 45.9810 297° West 485 558 38,000  Level FlightAware
09:11PM 46.1430 45.8730 297° West 483 556 38,000  Level FlightAware
09:12PM 46.1940 45.7300 297° West 481 554 38,000  Level FlightAware
09:13PM 46.2340 45.6190 298° West 479 551 38,000  Level FlightAware
09:13PM 46.2800 45.4890 297° West 479 551 38,000  Level FlightAware
09:14PM 46.3190 45.3780 297° West 482 555 38,000  Level FlightAware
09:15PM 46.3600 45.2610 297° West 482 555 38,000  Level FlightAware
09:15PM 46.3990 45.1480 297° West 482 555 38,000  Level FlightAware
09:16PM 46.4470 45.0110 297° West 481 554 38,000  Level FlightAware
09:17PM 46.4880 44.8910 296° West 483 556 38,000  Level FlightAware
09:17PM 46.5280 44.7770 297° West 483 556 38,000  Level FlightAware
09:18PM 46.5740 44.6420 296° West 483 556 38,000  Level FlightAware
09:19PM 46.6140 44.5240 296° West 485 558 38,000  Level FlightAware
09:20PM 46.6550 44.4040 296° West 487 560 38,000  Level FlightAware
09:20PM 46.6940 44.2870 296° West 488 562 38,000  Level FlightAware
09:21PM 46.7330 44.1710 296° West 488 562 38,000  Level FlightAware
09:22PM 46.7810 44.0300 296° West 489 563 38,000  Level FlightAware
09:22PM 46.8210 43.9080 296° West 488 562 38,000  Level FlightAware
09:23PM 46.8660 43.7740 296° West 486 559 38,000  Level FlightAware
09:24PM 46.9050 43.6550 296° West 486 559 38,000  Level FlightAware
09:24PM 46.9430 43.5400 296° West 486 559 38,000  Level FlightAware
09:25PM 46.9870 43.4050 296° West 489 563 38,000  Level FlightAware
09:26PM 47.0250 43.2870 295° West 488 562 38,000  Level FlightAware
09:27PM 47.0690 43.1530 296° West 486 559 38,000  Level FlightAware
09:27PM 47.1040 43.0320 293° West 484 557 38,000  Level FlightAware
09:28PM 47.1350 42.9100 291° West 485 558 38,000  Level FlightAware
09:29PM 47.1710 42.7730 291° West 487 560 38,000  Level FlightAware
09:29PM 47.1970 42.6740 291° West 490 564 38,000  Level FlightAware
09:30PM 47.2350 42.5260 291° West 489 563 38,000  Level FlightAware
09:31PM 47.2720 42.3820 291° West 487 560 38,000  Level FlightAware
09:31PM 47.3030 42.2620 291° West 485 558 38,000  Level FlightAware
09:32PM 47.3360 42.1310 290° West 485 558 38,000  Level FlightAware
09:33PM 47.3630 42.0250 291° West 485 558 38,000  Level FlightAware
09:33PM 47.3980 41.8870 291° West 485 558 38,000  Level FlightAware
09:34PM 47.4360 41.7330 290° West 484 557 38,000  Level FlightAware
09:35PM 47.4600 41.6360 290° West 482 555 38,000  Level FlightAware
09:36PM 47.5010 41.4720 290° West 480 552 38,000  Level FlightAware
09:36PM 47.5310 41.3480 290° West 480 552 38,000  Level FlightAware
09:37PM 47.5640 41.2140 290° West 480 552 38,000  Level FlightAware
09:38PM 47.5960 41.0880 291° West 481 554 38,000  Level FlightAware
09:38PM 47.6320 40.9670 294° West 481 554 38,000  Level FlightAware
09:39PM 47.6640 40.8590 294° West 481 554 38,000  Level FlightAware
09:40PM 47.6990 40.7400 294° West 480 552 38,000  Level FlightAware
09:41PM 47.7440 40.5890 294° West 479 551 38,000  Level FlightAware
09:41PM 47.7760 40.4780 293° West 479 551 38,000  Level FlightAware
09:42PM 47.8110 40.3580 294° West 482 555 38,000  Level FlightAware
09:43PM 47.8550 40.2060 293° West 480 552 38,000  Level FlightAware
09:43PM 47.8870 40.0900 292° West 477 549 38,000  Level FlightAware
09:44PM 47.9210 39.9320 288° West 478 550 38,000  Level FlightAware
09:45PM 47.9450 39.8230 288° West 482 555 38,000  Level FlightAware
09:45PM 47.9810 39.6880 292° West 483 556 38,000  Level FlightAware
09:46PM 48.0150 39.5690 293° West 482 555 38,000  Level FlightAware
09:47PM 48.0550 39.4220 292° West 481 554 38,000  Level FlightAware
09:48PM 48.0890 39.2910 291° West 480 552 38,000  Level FlightAware
09:49PM 48.1400 39.0980 292° West 477 549 38,000  Level FlightAware
09:50PM 48.1780 38.9570 292° West 475 547 38,000  Level FlightAware
09:50PM 48.2160 38.8080 291° West 475 547 38,000  Level FlightAware
09:51PM 48.2390 38.6510 282° West 472 543 38,000  Level FlightAware
09:52PM 48.2640 38.5260 287° West 471 542 38,000  Level FlightAware
09:52PM 48.2840 38.4270 287° West 469 540 38,000  Level FlightAware
09:53PM 48.3130 38.2730 286° West 469 540 38,000  Level FlightAware
09:54PM 48.3380 38.1480 287° West 470 541 38,000  Level FlightAware
09:55PM 48.3620 38.0190 286° West 469 540 38,000  Level FlightAware
09:55PM 48.3860 37.8920 286° West 467 537 38,000  Level FlightAware
09:56PM 48.4100 37.7670 286° West 467 537 38,000  Level FlightAware
09:57PM 48.4330 37.6440 286° West 468 539 38,000  Level FlightAware
09:57PM 48.4620 37.4890 286° West 467 537 38,000  Level FlightAware
09:58PM 48.4850 37.3630 285° West 467 537 38,000  Level FlightAware
09:59PM 48.5110 37.2240 286° West 467 537 38,000  Level FlightAware
09:59PM 48.5340 37.0930 285° West 466 536 38,000  Level FlightAware
10:00PM 48.5580 36.9640 286° West 465 535 38,000  Level FlightAware
10:01PM 48.5790 36.8450 285° West 466 536 38,000 60 Level FlightAware
10:03PM 48.6280 36.5484 284° West  Level Estimated
10:04PM 48.6579 36.3647 284° West  Level Estimated
10:04PM 48.6880 36.2930 284° West 474 545 38,400  Level FlightAware
10:04PM 48.7220 36.1540 290° West 472 543 39,100 720 Climbing FlightAware
10:05PM 48.7500 36.0370 290° West 474 545 39,500 120 Climbing FlightAware
10:08PM 48.8203 35.5845 283° West  Level Estimated
10:09PM 48.8485 35.3994 283° West  Level Estimated
10:10PM 48.8763 35.2141 283° West  Level Estimated
10:10PM 48.9810 35.0770 283° West 467 537 40,000  Level FlightAware
10:11PM 49.0090 34.9590 290° West 465 535 40,000  Level FlightAware
10:12PM 49.0460 34.8020 290° West 463 533 40,000  Level FlightAware
10:13PM 49.0820 34.6460 289° West 465 535 40,000  Level FlightAware
10:13PM 49.1100 34.5220 289° West 467 537 40,000  Level FlightAware
10:14PM 49.1350 34.4130 289° West 467 537 40,000  Level FlightAware
10:15PM 49.1680 34.2700 289° West 468 539 40,000  Level FlightAware
10:15PM 49.1940 34.1560 289° West 466 536 40,000  Level FlightAware
10:16PM 49.2300 33.9920 289° West 468 539 40,000  Level FlightAware
10:17PM 49.2570 33.8710 289° West 468 539 40,000  Level FlightAware
10:17PM 49.2830 33.7580 289° West 466 536 40,000  Level FlightAware
10:18PM 49.3120 33.6230 288° West 467 537 40,000  Level FlightAware
10:19PM 49.3370 33.5020 288° West 468 539 40,000  Level FlightAware
10:20PM 49.3710 33.3340 287° West 466 536 40,000  Level FlightAware
10:20PM 49.3970 33.2080 288° West 470 541 40,000  Level FlightAware
10:21PM 49.4230 33.0790 287° West 473 544 40,000  Level FlightAware
10:22PM 49.4510 32.9400 287° West 475 547 40,000  Level FlightAware
10:22PM 49.4730 32.8250 286° West 474 545 40,000  Level FlightAware
10:23PM 49.5040 32.6730 287° West 474 545 40,000  Level FlightAware
10:24PM 49.5270 32.5590 287° West 474 545 40,000  Level FlightAware
10:24PM 49.5570 32.4070 287° West 474 545 40,000  Level FlightAware
10:25PM 49.5800 32.2920 287° West 474 545 40,000  Level FlightAware
10:26PM 49.6100 32.1390 287° West 477 549 40,000 60 Level FlightAware
10:27PM 49.6390 31.9850 286° West 477 549 40,100  Climbing FlightAware
10:27PM 49.6560 31.8840 285° West 476 548 40,000 -120 Descending FlightAware
10:28PM 49.6830 31.7420 286° West 471 542 40,000  Level FlightAware
10:29PM 49.7110 31.5900 286° West 469 540 40,000 60 Level FlightAware
10:29PM 49.7330 31.4760 287° West 469 540 40,100 60 Climbing FlightAware
10:30PM 49.7610 31.3240 286° West 469 540 40,100  Level FlightAware
10:31PM 49.7970 31.1330 286° West 469 540 40,200 60 Climbing FlightAware
10:32PM 49.8180 31.0180 286° West 469 540 40,200 60 Level FlightAware
10:32PM 49.8460 30.8660 286° West 469 540 40,300 60 Climbing FlightAware
10:33PM 49.8750 30.7130 286° West 469 540 40,300  Level FlightAware
10:34PM 49.8950 30.6010 286° West 469 540 40,300  Level FlightAware
10:34PM 49.9160 30.4910 287° West 469 540 40,300  Level FlightAware
10:35PM 49.9360 30.3810 286° West 469 540 40,300  Level FlightAware
10:36PM 49.9610 30.2430 286° West 469 540 40,300  Level FlightAware
10:37PM 49.9820 30.1320 286° West 469 540 40,300  Level FlightAware
10:37PM 50.0020 30.0220 286° West 469 540 40,300  Level FlightAware
10:38PM 50.0220 29.9120 286° West 469 540 40,300  Level FlightAware
10:39PM 50.0480 29.7740 286° West 469 540 40,300  Level FlightAware
10:39PM 50.0680 29.6630 286° West 469 540 40,300  Level FlightAware
10:40PM 50.0880 29.5530 286° West 469 540 40,300  Level FlightAware
10:41PM 50.1090 29.4420 286° West 469 540 40,300  Level FlightAware
10:41PM 50.1290 29.3320 286° West 469 540 40,300  Level FlightAware
10:42PM 50.1550 29.1930 286° West 469 540 40,300  Level FlightAware
10:43PM 50.1750 29.0830 286° West 469 540 40,300 -180 Level FlightAware
10:44PM 50.2040 28.7250 277° West 40,000 -240 Descending FlightAware
10:44PM 50.2270 28.5840 284° West 457 526 40,000  Level FlightAware
10:45PM 50.2460 28.4540 283° West 456 525 40,000  Level FlightAware
10:46PM 50.2580 28.3720 283° West 456 525 40,000  Level FlightAware
10:46PM 50.2840 28.2070 284° West 455 524 40,000  Level FlightAware
10:47PM 50.3060 28.0650 284° West 452 520 40,000  Level FlightAware
10:48PM 50.3300 27.9070 283° West 451 519 40,000  Level FlightAware
10:48PM 50.3460 27.7980 283° West 451 519 40,000  Level FlightAware
10:49PM 50.3620 27.6900 283° West 451 519 40,000  Level FlightAware
10:50PM 50.3900 27.5070 284° West 447 514 40,000  Level FlightAware
10:50PM 50.4050 27.4030 283° West 448 516 40,000  Level FlightAware
10:51PM 50.4310 27.2150 282° West 450 518 40,000  Level FlightAware
10:52PM 50.4570 27.0410 283° West 452 520 40,000  Level FlightAware
10:53PM 50.4780 26.8930 283° West 454 522 40,000  Level FlightAware
10:54PM 50.4990 26.7450 283° West 453 521 40,000  Level FlightAware
10:54PM 50.5130 26.6410 282° West 453 521 40,000  Level FlightAware
10:55PM 50.5340 26.4870 282° West 457 526 40,000  Level FlightAware
10:56PM 50.5550 26.3380 283° West 452 520 40,000  Level FlightAware
10:57PM 50.5710 26.2170 282° West 454 522 40,000  Level FlightAware
10:57PM 50.5900 26.0730 282° West 456 525 40,000  Level FlightAware
10:58PM 50.6140 25.8910 282° West 454 522 40,000  Level FlightAware
10:59PM 50.6380 25.7120 282° West 452 520 40,000  Level FlightAware
11:00PM 50.6600 25.5390 281° West 451 519 40,000  Level FlightAware
11:01PM 50.6780 25.3980 281° West 448 516 40,000  Level FlightAware
11:02PM 50.6950 25.2560 281° West 443 510 40,000  Level FlightAware
11:02PM 50.7090 25.1450 281° West 440 506 40,000  Level FlightAware
11:03PM 50.7290 24.9880 281° West 443 510 40,000  Level FlightAware
11:04PM 50.7430 24.8720 281° West 445 512 40,000  Level FlightAware
11:04PM 50.7600 24.7330 281° West 445 512 40,000  Level FlightAware
11:05PM 50.7820 24.5510 281° West 449 517 40,000  Level FlightAware
11:06PM 50.7970 24.4190 280° West 449 517 40,000  Level FlightAware
11:07PM 50.8140 24.2790 281° West 447 514 40,000  Level FlightAware
11:08PM 50.8380 24.0150 278° West 452 520 40,000  Level FlightAware
11:09PM 50.8520 23.8190 277° West 452 520 40,000  Level FlightAware
11:10PM 50.8610 23.6860 276° West 451 519 40,000  Level FlightAware
11:10PM 50.8700 23.5690 277° West 449 517 40,000  Level FlightAware
11:11PM 50.8810 23.4050 276° West 449 517 40,000  Level FlightAware
11:12PM 50.8930 23.2420 277° West 450 518 40,000  Level FlightAware
11:13PM 50.9020 23.1080 276° West 452 520 40,000  Level FlightAware
11:13PM 50.9110 22.9650 276° West 454 522 40,000  Level FlightAware
11:14PM 50.9200 22.8260 276° West 452 520 40,000  Level FlightAware
11:15PM 50.9280 22.7010 276° West 451 519 40,000  Level FlightAware
11:16PM 50.9380 22.5430 276° West 453 521 40,000  Level FlightAware
11:16PM 50.9470 22.4000 276° West 455 524 40,000  Level FlightAware
11:17PM 50.9560 22.2490 275° West 456 525 40,000  Level FlightAware
11:18PM 50.9640 22.1110 275° West 450 518 40,000  Level FlightAware
11:18PM 50.9720 21.9770 275° West 447 514 40,000  Level FlightAware
11:19PM 50.9800 21.8350 275° West 449 517 40,000  Level FlightAware
11:20PM 50.9870 21.7110 275° West 450 518 40,000  Level FlightAware
11:20PM 50.9950 21.5600 275° West 449 517 40,000  Level FlightAware
11:21PM 51.0020 21.4290 275° West 448 516 40,000  Level FlightAware
11:22PM 51.0090 21.2930 275° West 450 518 40,000  Level FlightAware
11:23PM 51.0160 21.1540 275° West 451 519 40,000  Level FlightAware
11:23PM 51.0220 21.0210 274° West 449 517 40,000  Level FlightAware
11:24PM 51.0300 20.8720 275° West 446 513 40,000  Level FlightAware
11:25PM 51.0360 20.7470 274° West 445 512 40,000  Level FlightAware
11:25PM 51.0420 20.6020 274° West 443 510 40,000  Level FlightAware
11:26PM 51.0480 20.4710 274° West 439 505 40,000  Level FlightAware
11:27PM 51.0540 20.3380 274° West 437 503 40,000  Level FlightAware
11:27PM 51.0600 20.1950 274° West 439 505 40,000  Level FlightAware
11:28PM 51.0650 20.0660 274° West 440 506 40,000  Level FlightAware
11:29PM 51.0710 19.9230 274° West 441 507 40,000  Level FlightAware
11:30PM 51.0760 19.7940 274° West 440 506 40,000  Level FlightAware
11:30PM 51.0810 19.6660 274° West 441 507 40,000  Level FlightAware
11:31PM 51.0860 19.5210 273° West 440 506 40,000  Level FlightAware
11:32PM 51.0910 19.3880 273° West 436 502 40,000  Level FlightAware
11:32PM 51.0960 19.2410 273° West 432 497 40,000  Level FlightAware
11:33PM 51.1000 19.1140 273° West 434 499 40,000  Level FlightAware
11:34PM 51.1040 18.9870 273° West 435 501 40,000  Level FlightAware
11:34PM 51.1080 18.8480 273° West 435 501 40,000  Level FlightAware
11:35PM 51.1120 18.7210 273° West 433 498 40,000  Level FlightAware
11:36PM 51.1160 18.5770 273° West 433 498 40,000  Level FlightAware
11:37PM 51.1200 18.4560 273° West 433 498 40,000  Level FlightAware
11:37PM 51.1240 18.3010 272° West 436 502 40,000  Level FlightAware
11:38PM 51.1270 18.1710 272° West 438 504 40,000  Level FlightAware
11:39PM 51.1300 18.0470 272° West 437 503 40,000  Level FlightAware
11:39PM 51.1330 17.9040 272° West 438 504 40,000  Level FlightAware
11:40PM 51.1360 17.7760 272° West 437 503 40,000  Level FlightAware
11:41PM 51.1380 17.6470 271° West 437 503 40,000  Level FlightAware
11:41PM 51.1410 17.4990 272° West 436 502 40,000  Level FlightAware
11:42PM 51.1430 17.3780 272° West 435 501 40,000  Level FlightAware
11:43PM 51.1460 17.2480 272° West 436 502 40,000  Level FlightAware
11:44PM 51.1480 17.0990 271° West 439 505 40,000  Level FlightAware
11:44PM 51.1500 16.9750 272° West 440 506 40,000  Level FlightAware
11:45PM 51.1520 16.8280 271° West 440 506 40,000  Level FlightAware
11:46PM 51.1530 16.7000 271° West 443 510 40,000  Level FlightAware
11:46PM 51.1550 16.5770 272° West 443 510 40,000  Level FlightAware
11:47PM 51.1560 16.4200 271° West 443 510 40,000  Level FlightAware
11:48PM 51.1570 16.2960 271° West 442 509 40,000  Level FlightAware
11:48PM 51.1590 16.1520 271° West 439 505 40,000  Level FlightAware
11:49PM 51.1590 16.0170 270° West 441 507 40,000  Level FlightAware
11:50PM 51.1600 15.8940 271° West 444 511 40,000  Level FlightAware
11:51PM 51.1610 15.7400 271° West 443 510 40,000  Level FlightAware
11:51PM 51.1610 15.6190 270° West 444 511 40,000  Level FlightAware
11:52PM 51.1610 15.4830 270° West 447 514 40,000  Level FlightAware
11:53PM 51.1610 15.3370 270° West 449 517 40,000  Level FlightAware
11:53PM 51.1610 15.1990 270° West 450 518 40,000  Level FlightAware
11:54PM 51.1610 15.0500 270° West 448 516 40,000  Level FlightAware
11:55PM 51.1610 14.9180 270° West 446 513 40,000  Level FlightAware
11:55PM 51.1600 14.7890 269° West 444 511 40,000  Level FlightAware
11:56PM 51.1590 14.6430 269° West 444 511 40,000  Level FlightAware
11:57PM 51.1580 14.5140 269° West 444 511 40,000  Level FlightAware
11:57PM 51.1580 14.3910 270° West 445 512 40,000  Level FlightAware
11:58PM 51.1560 14.2390 269° West 446 513 40,000  Level FlightAware
11:59PM 51.1440 14.1030 262° West 446 513 40,000  Level FlightAware
12:00AM 51.1260 13.9670 258° West 444 511 40,000  Level FlightAware
12:00AM 51.1080 13.8340 258° West 443 510 40,000  Level FlightAware
12:01AM 51.0930 13.7230 258° West 443 510 40,000  Level FlightAware
12:02AM 51.0740 13.5780 258° West 445 512 40,000  Level FlightAware
12:02AM 51.0570 13.4540 258° West 446 513 40,000  Level FlightAware
12:03AM 51.0390 13.3260 257° West 446 513 40,000  Level FlightAware
12:04AM 51.0180 13.1760 258° West 445 512 40,000  Level FlightAware
12:04AM 51.0010 13.0570 257° West 444 511 40,000  Level FlightAware
12:05AM 50.9810 12.9160 257° West 442 509 40,000  Level FlightAware
12:06AM 50.9620 12.7830 257° West 443 510 40,000  Level FlightAware
12:06AM 50.9440 12.6560 257° West 442 509 40,000  Level FlightAware
12:07AM 50.9240 12.5180 257° West 440 506 40,000  Level FlightAware
12:08AM 50.9050 12.3940 256° West 437 503 40,000  Level FlightAware
12:09AM 50.8850 12.2540 257° West 434 499 40,000  Level FlightAware
12:09AM 50.8660 12.1270 257° West 431 496 40,000  Level FlightAware
12:10AM 50.8450 11.9920 256° West 432 497 40,000  Level FlightAware
12:11AM 50.8270 11.8690 257° West 435 501 40,000  Level FlightAware
12:11AM 50.8060 11.7330 256° West 435 501 40,000  Level FlightAware
12:12AM 50.7840 11.5930 256° West 434 499 40,000  Level FlightAware
12:13AM 50.7660 11.4800 256° West 435 501 40,000  Level FlightAware
12:14AM 50.7450 11.3470 256° West 436 502 40,000  Level FlightAware
12:14AM 50.7230 11.2070 256° West 435 501 40,000  Level FlightAware
12:15AM 50.7030 11.0820 256° West 436 502 40,000  Level FlightAware
12:16AM 50.6820 10.9470 256° West 435 501 40,000  Level FlightAware
12:16AM 50.6620 10.8280 255° West 435 501 40,000  Level FlightAware
12:17AM 50.6420 10.7020 256° West 435 501 40,000  Level FlightAware
12:18AM 50.6180 10.5610 255° West 437 503 40,000  Level FlightAware
12:18AM 50.5980 10.4370 256° West 439 505 40,000  Level FlightAware
12:19AM 50.5750 10.3010 255° West 439 505 40,000  Level FlightAware
12:20AM 50.5570 10.1920 255° West 437 503 40,000  Level FlightAware
12:21AM 50.5370 10.0760 255° West 435 501 40,000  Level FlightAware
12:21AM 50.5150 9.9490 255° West 437 503 40,000  Level FlightAware
12:22AM 50.4960 9.8380 255° West 439 505 40,000  Level FlightAware
12:23AM 50.4690 9.6800 255° West 440 506 40,000  Level FlightAware
12:23AM 50.4490 9.5680 254° West 442 509 40,000  Level FlightAware
12:24AM 50.4270 9.4410 255° West 444 511 40,000  Level FlightAware
12:25AM 50.4020 9.2980 255° West 447 514 40,000  Level FlightAware
12:25AM 50.3800 9.1720 255° West 449 517 40,000  Level FlightAware
12:26AM 50.3540 9.0280 254° West 448 516 40,000  Level FlightAware
12:27AM 50.3350 8.9250 254° West 449 517 40,000  Level FlightAware
12:28AM 50.3090 8.7820 254° West 451 519 40,000  Level FlightAware
12:28AM 50.2860 8.6580 254° West 453 521 40,000  Level FlightAware
12:29AM 50.2650 8.5410 254° West 452 520 40,000  Level FlightAware
12:30AM 50.2360 8.3850 254° West 451 519 40,000  Level FlightAware
12:30AM 50.2100 8.2480 254° West 450 518 40,000  Level FlightAware
12:31AM 50.1880 8.1320 254° West 451 519 40,000  Level FlightAware
12:32AM 50.1640 8.0070 253° West 449 517 40,000  Level FlightAware
12:32AM 50.1400 7.8790 254° West 450 518 40,000  Level FlightAware
12:33AM 50.1100 7.7230 253° West 448 516 40,000  Level FlightAware
12:34AM 50.0930 7.6400 252° West 450 518 40,000  Level FlightAware
12:35AM 50.0620 7.4780 253° West 451 519 40,000  Level FlightAware
12:35AM 50.0340 7.3380 253° West 449 517 40,000  Level FlightAware
12:36AM 50.0130 7.2310 253° West 454 522 40,000  Level FlightAware
12:37AM 49.9870 7.0980 253° West 458 527 40,000  Level FlightAware
12:37AM 49.9580 6.9570 252° West 457 526 40,000  Level FlightAware
12:38AM 49.9250 6.7930 253° West 457 526 40,000  Level FlightAware
12:39AM 49.8810 6.5760 253° West 449 517 40,000  Level FlightAware
12:40AM 49.8590 6.4710 252° West 452 520 40,000 -420 Level FlightAware
12:41AM 49.8320 6.3370 253° West 440 506 39,500 -1,080 Descending FlightAware
12:41AM 49.8090 6.2290 252° West 436 502 38,600 -1,440 Descending FlightAware
12:42AM 49.7780 6.0800 252° West 440 506 37,400 -1,500 Descending FlightAware
12:43AM 49.7370 5.8850 252° West 444 511 35,800 -1,680 Descending FlightAware
12:44AM 49.7030 5.7270 252° West 437 503 34,400 -1,620 Descending FlightAware
12:45AM 49.6670 5.5610 252° West 442 509 33,000 -1,800 Descending FlightAware
12:45AM 49.6450 5.4570 252° West 427 491 31,700 -2,400 Descending FlightAware
12:46AM 49.6140 5.3140 252° West 415 478 29,600 -2,340 Descending FlightAware
12:47AM 49.5990 5.2040 258° West 409 471 28,200 -1,200 Descending FlightAware
12:48AM 49.5880 5.0810 262° West 409 471 28,000 -180 Descending FlightAware
12:48AM 49.5770 4.9550 262° West 407 468 28,000  Level FlightAware
12:49AM 49.5660 4.8430 261° West 408 470 28,000  Level FlightAware
12:50AM 49.5550 4.7140 263° West 408 470 28,000  Level FlightAware
12:50AM 49.5440 4.5970 262° West 410 472 28,000  Level FlightAware
12:51AM 49.5330 4.4830 262° West 410 472 28,000 -960 Level FlightAware
12:52AM 49.5210 4.3500 262° West 400 460 26,700 -2,100 Descending FlightAware
12:53AM 49.5100 4.2390 261° West 392 451 25,100 -3,120 Descending FlightAware
12:53AM 49.4990 4.1190 262° West 379 436 22,300 -3,840 Descending FlightAware
12:54AM 49.4890 4.0160 262° West 362 417 19,700 -3,900 Descending FlightAware
12:55AM 49.4790 3.9160 261° West 347 399 17,100 -3,600 Descending FlightAware
12:55AM 49.4680 3.8070 261° West 324 373 14,600 -3,000 Descending FlightAware
12:56AM 49.4590 3.7150 261° West 313 360 12,900 -2,340 Descending FlightAware
12:57AM 49.4490 3.6210 261° West 312 359 11,300 -1,980 Descending FlightAware
12:57AM 49.4340 3.5350 255° West 303 349 10,100 -1,320 Descending FlightAware
12:58AM 49.4250 3.4820 255° West 284 327 9,900 -600 Descending FlightAware
12:58AM 49.4180 3.4560 248° West 274 315 9,700 -840 Descending FlightAware
12:58AM 49.4030 3.4360 221° Southwest 266 306 9,500 -600 Descending FlightAware
12:59AM 49.3880 3.4250 206° Southwest 257 296 9,400 -960 Descending FlightAware
12:59AM 49.3570 3.3980 210° Southwest 254 292 8,800 -1,440 Descending FlightAware
01:00AM 49.3310 3.3750 210° Southwest 254 292 8,100 -1,560 Descending FlightAware
01:00AM 49.3010 3.3490 209° Southwest 253 291 7,400 -1,320 Descending FlightAware
01:00AM 49.2750 3.3260 210° Southwest 247 284 6,900 -1,200 Descending FlightAware
01:01AM 49.2490 3.2970 216° Southwest 240 276 6,300 -1,320 Descending FlightAware
01:01AM 49.2270 3.2590 228° Southwest 235 270 5,600 -1,380 Descending FlightAware
01:02AM 49.2190 3.2440 231° Southwest 233 268 5,400 -480 Descending FlightAware
01:02AM 49.1990 3.2100 228° Southwest 228 262 5,300 -120 Descending FlightAware
01:03AM 49.1780 3.1740 228° Southwest 226 260 5,300  Level FlightAware
01:03AM 49.1620 3.1450 230° Southwest 226 260 5,300  Level FlightAware
01:03AM 49.1480 3.1200 229° Southwest 206 237 5,300  Level FlightAware
01:04AM 49.1290 3.0850 230° Southwest 194 223 5,300  Level FlightAware
01:04AM 49.1100 3.0520 229° Southwest 193 222 5,300  Level FlightAware
01:05AM 49.0930 3.0200 231° Southwest 186 214 5,300  Level FlightAware
01:05AM 49.0800 2.9960 230° Southwest 180 207 5,300  Level FlightAware
01:06AM 49.0640 2.9680 229° Southwest 151 174 5,300  Level FlightAware
01:06AM 49.0530 2.9490 229° Southwest 151 174 5,300  Level FlightAware
01:07AM 49.0470 2.9360 235° Southwest 149 171 5,300  Level FlightAware
01:07AM 49.0450 2.9200 259° West 158 182 5,300  Level FlightAware
01:07AM 49.0440 2.9080 263° West 160 184 5,300 -780 Level FlightAware
01:08AM 49.0420 2.8580 267° West 154 177 4,600 -900 Descending FlightAware
01:08AM 49.0410 2.8260 267° West 153 176 4,200 -900 Descending FlightAware
01:09AM 49.0390 2.7990 264° West 151 174 3,800 -900 Descending FlightAware
01:09AM 49.0380 2.7830 265° West 148 170 3,600 -840 Descending FlightAware
01:09AM 49.0366 2.7496 266° West 149 171 3,200 -780 Descending FlightAware ADS-B
01:10AM 49.0357 2.7323 265° West 149 171 3,000 -840 Descending FlightAware ADS-B
01:10AM 49.0346 2.7107 266° West 144 166 2,700 -960 Descending FlightAware ADS-B
01:10AM 49.0336 2.6919 265° West 146 168 2,400 -780 Descending FlightAware ADS-B
01:11AM 49.0328 2.6764 266° West 149 171 2,300 -660 Descending FlightAware ADS-B
01:11AM 49.0321 2.6619 266° West 138 159 2,100 -780 Descending FlightAware ADS-B
01:11AM 49.0312 2.6467 265° West 129 148 1,900 -780 Descending FlightAware ADS-B
01:11AM 49.0305 2.6333 265° West 123 142 1,700 -900 Descending FlightAware ADS-B
01:11AM 49.0303 2.6288 266° West 124 143 1,600 -780 Descending FlightAware ADS-B
01:12AM 49.0298 2.6194 265° West 122 140 1,500 -720 Descending FlightAware ADS-B
01:12AM 49.0294 2.6129 265° West 128 147 1,400 -600 Descending FlightAware ADS-B
01:12AM 49.0287 2.5993 266° West 126 145 1,300 -600 Descending FlightAware ADS-B
01:12AM 49.0280 2.5862 265° West 127 146 1,100 -780 Descending FlightAware ADS-B
01:12AM 49.0277 2.5780 267° West 128 147 1,000 -720 Descending FlightAware ADS-B
01:13AM 49.0271 2.5704 263° West 130 150 900 -720 Descending FlightAware ADS-B